Terminal Aerodrome Forecast
Issued by NWS Corpus Christi, TX

Home | Current Version | Previous Version | Text Only | Print | Product List | Glossary On
Versions: 1 2 3 4 5 6 7 8 9 10 11 12 13 14 15 16 17 18
590
FTUS44 KCRP 280521
TAFVCT
TAF
KVCT 280521Z 2806/0106 15012KT 4SM BR OVC006
     FM280900 17004KT 3SM BR OVC004 WS020/18040KT
      TEMPO 2810/2813 1SM BR
     FM281400 18008G15KT P6SM BKN015
     FM281700 18012G20KT P6SM BKN030
      TEMPO 2820/2822 SCT030
     FM282200 17018G25KT P6SM SCT035 BKN250
     FM010200 17015KT P6SM BKN015 OVC250=

USA.gov is the U.S. government's official web portal to all federal, state and local government web resources and services.